sensor_id;sensor_type;location;lat;lon;timestamp;pressure;altitude;pressure_sealevel;temperature;humidity
5996;BME280;3026;53.612;7.278;2024-01-27T00:02:25;102939.09;;;5.76;100.00
5996;BME280;3026;53.612;7.278;2024-01-27T00:04:53;102937.34;;;5.75;100.00
5996;BME280;3026;53.612;7.278;2024-01-27T00:07:20;102950.09;;;5.73;100.00
5996;BME280;3026;53.612;7.278;2024-01-27T00:09:48;102951.06;;;5.72;100.00
5996;BME280;3026;53.612;7.278;2024-01-27T00:12:17;102952.03;;;5.71;100.00
5996;BME280;3026;53.612;7.278;2024-01-27T00:14:44;102950.28;;;5.70;100.00
5996;BME280;3026;53.612;7.278;2024-01-27T00:17:11;102955.69;;;5.70;100.00
5996;BME280;3026;53.612;7.278;2024-01-27T00:19:39;102958.41;;;5.70;100.00
5996;BME280;3026;53.612;7.278;2024-01-27T00:22:07;102955.69;;;5.70;100.00
5996;BME280;3026;53.612;7.278;2024-01-27T00:24:35;102959.97;;;5.74;100.00
5996;BME280;3026;53.612;7.278;2024-01-27T00:27:02;102964.50;;;5.74;100.00
5996;BME280;3026;53.612;7.278;2024-01-27T00:29:32;102970.00;;;5.72;100.00
5996;BME280;3026;53.612;7.278;2024-01-27T00:31:59;102977.16;;;5.73;100.00
5996;BME280;3026;53.612;7.278;2024-01-27T00:34:28;102968.09;;;5.74;100.00
5996;BME280;3026;53.612;7.278;2024-01-27T00:36:56;102976.97;;;5.76;100.00
5996;BME280;3026;53.612;7.278;2024-01-27T00:39:23;102967.88;;;5.77;100.00
5996;BME280;3026;53.612;7.278;2024-01-27T00:41:51;102975.06;;;5.78;100.00
5996;BME280;3026;53.612;7.278;2024-01-27T00:44:20;102971.56;;;5.76;100.00
5996;BME280;3026;53.612;7.278;2024-01-27T00:46:49;102977.84;;;5.77;100.00
5996;BME280;3026;53.612;7.278;2024-01-27T00:49:16;102982.25;;;5.79;100.00
5996;BME280;3026;53.612;7.278;2024-01-27T00:51:44;102993.06;;;5.79;100.00
5996;BME280;3026;53.612;7.278;2024-01-27T00:54:12;102998.47;;;5.79;100.00
5996;BME280;3026;53.612;7.278;2024-01-27T00:56:39;103002.13;;;5.78;100.00
5996;BME280;3026;53.612;7.278;2024-01-27T00:59:08;103007.53;;;5.78;100.00
5996;BME280;3026;53.612;7.278;2024-01-27T01:01:35;103006.66;;;5.78;100.00
5996;BME280;3026;53.612;7.278;2024-01-27T01:04:06;103006.75;;;5.76;100.00
5996;BME280;3026;53.612;7.278;2024-01-27T01:06:35;102991.47;;;5.75;100.00
5996;BME280;3026;53.612;7.278;2024-01-27T01:09:05;102994.28;;;5.74;100.00
5996;BME280;3026;53.612;7.278;2024-01-27T01:11:32;102986.25;;;5.72;100.00
5996;BME280;3026;53.612;7.278;2024-01-27T01:14:00;102989.94;;;5.71;100.00
5996;BME280;3026;53.612;7.278;2024-01-27T01:16:27;102990.78;;;5.72;100.00
5996;BME280;3026;53.612;7.278;2024-01-27T01:18:54;102994.28;;;5.74;100.00
5996;BME280;3026;53.612;7.278;2024-01-27T01:21:23;102995.16;;;5.74;100.00
5996;BME280;3026;53.612;7.278;2024-01-27T01:23:51;102995.16;;;5.74;100.00
5996;BME280;3026;53.612;7.278;2024-01-27T01:26:19;102997.94;;;5.73;100.00
5996;BME280;3026;53.612;7.278;2024-01-27T01:28:46;102999.88;;;5.71;100.00
5996;BME280;3026;53.612;7.278;2024-01-27T01:31:13;102999.00;;;5.70;100.00
5996;BME280;3026;53.612;7.278;2024-01-27T01:33:39;102993.59;;;5.70;100.00
5996;BME280;3026;53.612;7.278;2024-01-27T01:36:06;102992.72;;;5.70;100.00
5996;BME280;3026;53.612;7.278;2024-01-27T01:38:35;102999.00;;;5.70;100.00
5996;BME280;3026;53.612;7.278;2024-01-27T01:41:02;103000.94;;;5.68;100.00
5996;BME280;3026;53.612;7.278;2024-01-27T01:43:30;102999.16;;;5.67;100.00
5996;BME280;3026;53.612;7.278;2024-01-27T01:45:57;102995.69;;;5.65;100.00
5996;BME280;3026;53.612;7.278;2024-01-27T01:48:25;102995.88;;;5.62;100.00
5996;BME280;3026;53.612;7.278;2024-01-27T01:50:53;103002.25;;;5.61;100.00
5996;BME280;3026;53.612;7.278;2024-01-27T01:53:21;103002.34;;;5.60;100.00
5996;BME280;3026;53.612;7.278;2024-01-27T01:55:52;103005.13;;;5.58;100.00
5996;BME280;3026;53.612;7.278;2024-01-27T01:58:19;102997.97;;;5.57;100.00
5996;BME280;3026;53.612;7.278;2024-01-27T02:00:47;103003.38;;;5.57;100.00
5996;BME280;3026;53.612;7.278;2024-01-27T02:03:14;103001.69;;;5.54;100.00
5996;BME280;3026;53.612;7.278;2024-01-27T02:05:41;103003.53;;;5.54;100.00
5996;BME280;3026;53.612;7.278;2024-01-27T02:08:08;103002.66;;;5.53;100.00
5996;BME280;3026;53.612;7.278;2024-01-27T02:10:35;103007.22;;;5.53;100.00
5996;BME280;3026;53.612;7.278;2024-01-27T02:13:16;103006.34;;;5.52;100.00
5996;BME280;3026;53.612;7.278;2024-01-27T02:15:44;103006.44;;;5.51;100.00
5996;BME280;3026;53.612;7.278;2024-01-27T02:18:13;103007.38;;;5.50;100.00
5996;BME280;3026;53.612;7.278;2024-01-27T02:20:40;103002.06;;;5.48;100.00
5996;BME280;3026;53.612;7.278;2024-01-27T02:23:07;103000.41;;;5.46;100.00
5996;BME280;3026;53.612;7.278;2024-01-27T02:25:37;103004.09;;;5.45;100.00
5996;BME280;3026;53.612;7.278;2024-01-27T02:28:05;103005.97;;;5.43;100.00
5996;BME280;3026;53.612;7.278;2024-01-27T02:30:32;103009.66;;;5.42;100.00
5996;BME280;3026;53.612;7.278;2024-01-27T02:33:00;103020.66;;;5.39;100.00
5996;BME280;3026;53.612;7.278;2024-01-27T02:35:27;103011.75;;;5.37;100.00
5996;BME280;3026;53.612;7.278;2024-01-27T02:37:55;103015.41;;;5.36;100.00
5996;BME280;3026;53.612;7.278;2024-01-27T02:40:22;103021.78;;;5.35;100.00
5996;BME280;3026;53.612;7.278;2024-01-27T02:42:53;103013.81;;;5.32;100.00
5996;BME280;3026;53.612;7.278;2024-01-27T02:45:19;103015.75;;;5.30;100.00
5996;BME280;3026;53.612;7.278;2024-01-27T02:47:46;103023.09;;;5.27;100.00
5996;BME280;3026;53.612;7.278;2024-01-27T02:50:14;103026.75;;;5.26;100.00
5996;BME280;3026;53.612;7.278;2024-01-27T02:52:41;103021.50;;;5.23;100.00
5996;BME280;3026;53.612;7.278;2024-01-27T02:55:08;103026.91;;;5.23;100.00
5996;BME280;3026;53.612;7.278;2024-01-27T02:57:35;103012.63;;;5.21;100.00
5996;BME280;3026;53.612;7.278;2024-01-27T03:00:05;103018.16;;;5.18;100.00
5996;BME280;3026;53.612;7.278;2024-01-27T03:02:33;103014.69;;;5.16;100.00
5996;BME280;3026;53.612;7.278;2024-01-27T03:05:00;103011.19;;;5.14;100.00
5996;BME280;3026;53.612;7.278;2024-01-27T03:07:27;103012.34;;;5.10;100.00
5996;BME280;3026;53.612;7.278;2024-01-27T03:09:55;103012.38;;;5.09;100.00
5996;BME280;3026;53.612;7.278;2024-01-27T03:12:22;103012.38;;;5.09;100.00
5996;BME280;3026;53.612;7.278;2024-01-27T03:14:50;103010.72;;;5.06;100.00
5996;BME280;3026;53.612;7.278;2024-01-27T03:17:18;103016.06;;;5.08;100.00
5996;BME280;3026;53.612;7.278;2024-01-27T03:19:46;103012.56;;;5.06;100.00
5996;BME280;3026;53.612;7.278;2024-01-27T03:22:14;103026.19;;;5.04;100.00
5996;BME280;3026;53.612;7.278;2024-01-27T03:24:41;103025.47;;;5.01;100.00
5996;BME280;3026;53.612;7.278;2024-01-27T03:27:08;103026.53;;;4.98;100.00
5996;BME280;3026;53.612;7.278;2024-01-27T03:29:36;103021.25;;;4.95;100.00
5996;BME280;3026;53.612;7.278;2024-01-27T03:32:03;103017.78;;;4.93;100.00
5996;BME280;3026;53.612;7.278;2024-01-27T03:34:33;103017.78;;;4.93;100.00
5996;BME280;3026;53.612;7.278;2024-01-27T03:37:00;103012.53;;;4.90;100.00
5996;BME280;3026;53.612;7.278;2024-01-27T03:39:27;103006.34;;;4.88;100.00
5996;BME280;3026;53.612;7.278;2024-01-27T03:41:54;103026.16;;;4.88;100.00
5996;BME280;3026;53.612;7.278;2024-01-27T03:44:21;103028.94;;;4.87;100.00
5996;BME280;3026;53.612;7.278;2024-01-27T03:46:48;103029.88;;;4.86;100.00
5996;BME280;3026;53.612;7.278;2024-01-27T03:49:17;103027.16;;;4.86;100.00
5996;BME280;3026;53.612;7.278;2024-01-27T03:51:45;103021.75;;;4.86;100.00
5996;BME280;3026;53.612;7.278;2024-01-27T03:54:13;103028.13;;;4.85;100.00
5996;BME280;3026;53.612;7.278;2024-01-27T03:56:40;103020.88;;;4.85;100.00
5996;BME280;3026;53.612;7.278;2024-01-27T03:59:16;103018.25;;;4.84;100.00
5996;BME280;3026;53.612;7.278;2024-01-27T04:01:43;103032.56;;;4.86;100.00
5996;BME280;3026;53.612;7.278;2024-01-27T04:04:10;103040.69;;;4.86;100.00
5996;BME280;3026;53.612;7.278;2024-01-27T04:06:38;103033.47;;;4.86;100.00
5996;BME280;3026;53.612;7.278;2024-01-27T04:09:08;103037.97;;;4.86;100.00
5996;BME280;3026;53.612;7.278;2024-01-27T04:11:35;103039.88;;;4.84;100.00
5996;BME280;3026;53.612;7.278;2024-01-27T04:14:04;103037.28;;;4.82;100.00
5996;BME280;3026;53.612;7.278;2024-01-27T04:16:31;103030.13;;;4.81;100.00
5996;BME280;3026;53.612;7.278;2024-01-27T04:19:00;103042.75;;;4.81;100.00
5996;BME280;3026;53.612;7.278;2024-01-27T04:21:33;103045.63;;;4.78;100.00
5996;BME280;3026;53.612;7.278;2024-01-27T04:24:07;103035.00;;;4.75;100.00
5996;BME280;3026;53.612;7.278;2024-01-27T04:26:34;103033.22;;;4.74;100.00
5996;BME280;3026;53.612;7.278;2024-01-27T04:29:03;103026.06;;;4.73;100.00
5996;BME280;3026;53.612;7.278;2024-01-27T04:31:30;103040.53;;;4.72;100.00
5996;BME280;3026;53.612;7.278;2024-01-27T04:33:57;103032.53;;;4.70;100.00
5996;BME280;3026;53.612;7.278;2024-01-27T04:36:25;103029.72;;;4.72;100.00
5996;BME280;3026;53.612;7.278;2024-01-27T04:38:53;103029.72;;;4.72;100.00
5996;BME280;3026;53.612;7.278;2024-01-27T04:41:22;103031.47;;;4.73;100.00
5996;BME280;3026;53.612;7.278;2024-01-27T04:43:49;103029.59;;;4.75;100.00
5996;BME280;3026;53.612;7.278;2024-01-27T04:46:18;103022.41;;;4.74;100.00
5996;BME280;3026;53.612;7.278;2024-01-27T04:48:47;103032.28;;;4.75;100.00
5996;BME280;3026;53.612;7.278;2024-01-27T04:51:14;103027.81;;;4.74;100.00
5996;BME280;3026;53.612;7.278;2024-01-27T04:53:41;103022.41;;;4.74;100.00
5996;BME280;3026;53.612;7.278;2024-01-27T04:56:08;103038.63;;;4.74;100.00
5996;BME280;3026;53.612;7.278;2024-01-27T04:58:37;103035.00;;;4.75;100.00
5996;BME280;3026;53.612;7.278;2024-01-27T05:01:04;103038.63;;;4.74;100.00
5996;BME280;3026;53.612;7.278;2024-01-27T05:03:37;103038.63;;;4.74;100.00
5996;BME280;3026;53.612;7.278;2024-01-27T05:06:07;103040.53;;;4.72;100.00
5996;BME280;3026;53.612;7.278;2024-01-27T05:08:35;103035.31;;;4.68;100.00
5996;BME280;3026;53.612;7.278;2024-01-27T05:11:03;103038.00;;;4.68;100.00
5996;BME280;3026;53.612;7.278;2024-01-27T05:13:30;103029.91;;;4.68;100.00
5996;BME280;3026;53.612;7.278;2024-01-27T05:16:00;103040.81;;;4.67;100.00
5996;BME280;3026;53.612;7.278;2024-01-27T05:18:26;103039.13;;;4.64;100.00
5996;BME280;3026;53.612;7.278;2024-01-27T05:20:54;103044.53;;;4.64;100.00
5996;BME280;3026;53.612;7.278;2024-01-27T05:23:21;103050.91;;;4.63;100.00
5996;BME280;3026;53.612;7.278;2024-01-27T05:25:49;103046.41;;;4.62;100.00
5996;BME280;3026;53.612;7.278;2024-01-27T05:28:16;103044.69;;;4.61;100.00
5996;BME280;3026;53.612;7.278;2024-01-27T05:30:44;103033.16;;;4.58;100.00
5996;BME280;3026;53.612;7.278;2024-01-27T05:33:12;103035.94;;;4.56;100.00
5996;BME280;3026;53.612;7.278;2024-01-27T05:35:39;103043.28;;;4.54;100.00
5996;BME280;3026;53.612;7.278;2024-01-27T05:38:06;103050.59;;;4.52;100.00
5996;BME280;3026;53.612;7.278;2024-01-27T05:40:34;103058.84;;;4.49;100.00
5996;BME280;3026;53.612;7.278;2024-01-27T05:43:01;103056.13;;;4.49;100.00
5996;BME280;3026;53.612;7.278;2024-01-27T05:45:29;103071.47;;;4.49;100.00
5996;BME280;3026;53.612;7.278;2024-01-27T05:47:56;103058.91;;;4.48;100.00
5996;BME280;3026;53.612;7.278;2024-01-27T05:50:26;103060.66;;;4.49;100.00
5996;BME280;3026;53.612;7.278;2024-01-27T05:52:56;103076.00;;;4.48;100.00
5996;BME280;3026;53.612;7.278;2024-01-27T05:55:24;103065.19;;;4.48;100.00
5996;BME280;3026;53.612;7.278;2024-01-27T05:57:51;103070.59;;;4.48;100.00
5996;BME280;3026;53.612;7.278;2024-01-27T06:00:18;103072.50;;;4.46;100.00
5996;BME280;3026;53.612;7.278;2024-01-27T06:02:45;103068.84;;;4.47;100.00
5996;BME280;3026;53.612;7.278;2024-01-27T06:05:12;103069.81;;;4.46;100.00
5996;BME280;3026;53.612;7.278;2024-01-27T06:07:42;103068.84;;;4.47;100.00
5996;BME280;3026;53.612;7.278;2024-01-27T06:10:11;103069.81;;;4.46;100.00
5996;BME280;3026;53.612;7.278;2024-01-27T06:12:40;103068.84;;;4.47;100.00
5996;BME280;3026;53.612;7.278;2024-01-27T06:15:08;103065.34;;;4.45;100.00
5996;BME280;3026;53.612;7.278;2024-01-27T06:17:36;103069.88;;;4.45;100.00
5996;BME280;3026;53.612;7.278;2024-01-27T06:20:04;103073.53;;;4.44;100.00
5996;BME280;3026;53.612;7.278;2024-01-27T06:22:32;103076.31;;;4.42;100.00
5996;BME280;3026;53.612;7.278;2024-01-27T06:25:08;103079.97;;;4.41;100.00
5996;BME280;3026;53.612;7.278;2024-01-27T06:27:36;103083.66;;;4.40;100.00
5996;BME280;3026;53.612;7.278;2024-01-27T06:30:04;103081.88;;;4.39;100.00
5996;BME280;3026;53.612;7.278;2024-01-27T06:32:33;103081.88;;;4.39;100.00
5996;BME280;3026;53.612;7.278;2024-01-27T06:35:00;103086.34;;;4.40;100.00
5996;BME280;3026;53.612;7.278;2024-01-27T06:37:28;103085.53;;;4.38;100.00
5996;BME280;3026;53.612;7.278;2024-01-27T06:39:55;103081.06;;;4.37;100.00
5996;BME280;3026;53.612;7.278;2024-01-27T06:42:25;103086.41;;;4.38;100.00
5996;BME280;3026;53.612;7.278;2024-01-27T06:44:52;103074.72;;;4.38;100.00
5996;BME280;3026;53.612;7.278;2024-01-27T06:47:21;103080.13;;;4.38;100.00
5996;BME280;3026;53.612;7.278;2024-01-27T06:49:48;103082.75;;;4.39;100.00
5996;BME280;3026;53.612;7.278;2024-01-27T06:52:15;103078.25;;;4.40;100.00
5996;BME280;3026;53.612;7.278;2024-01-27T06:54:42;103077.34;;;4.39;100.00
5996;BME280;3026;53.612;7.278;2024-01-27T06:57:18;103091.66;;;4.42;100.00
5996;BME280;3026;53.612;7.278;2024-01-27T06:59:47;103090.72;;;4.43;100.00
5996;BME280;3026;53.612;7.278;2024-01-27T07:02:22;103090.63;;;4.44;100.00
5996;BME280;3026;53.612;7.278;2024-01-27T07:04:49;103088.72;;;4.46;100.00
5996;BME280;3026;53.612;7.278;2024-01-27T07:07:17;103090.47;;;4.47;100.00
5996;BME280;3026;53.612;7.278;2024-01-27T07:09:45;103093.94;;;4.49;100.00
5996;BME280;3026;53.612;7.278;2024-01-27T07:12:13;103095.69;;;4.50;100.00
5996;BME280;3026;53.612;7.278;2024-01-27T07:14:40;103094.75;;;4.51;100.00
5996;BME280;3026;53.612;7.278;2024-01-27T07:17:08;103091.03;;;4.54;100.00
5996;BME280;3026;53.612;7.278;2024-01-27T07:19:36;103106.38;;;4.53;100.00
5996;BME280;3026;53.612;7.278;2024-01-27T07:22:03;103099.06;;;4.55;100.00
5996;BME280;3026;53.612;7.278;2024-01-27T07:24:40;103099.06;;;4.55;100.00
5996;BME280;3026;53.612;7.278;2024-01-27T07:27:09;103100.81;;;4.56;100.00
5996;BME280;3026;53.612;7.278;2024-01-27T07:29:36;103102.56;;;4.57;100.00
5996;BME280;3026;53.612;7.278;2024-01-27T07:32:04;103112.41;;;4.58;100.00
5996;BME280;3026;53.612;7.278;2024-01-27T07:34:36;103097.94;;;4.59;100.00
5996;BME280;3026;53.612;7.278;2024-01-27T07:37:03;103114.94;;;4.61;100.00
5996;BME280;3026;53.612;7.278;2024-01-27T07:39:30;103113.13;;;4.62;100.00
5996;BME280;3026;53.612;7.278;2024-01-27T07:41:57;103105.00;;;4.62;100.00
5996;BME280;3026;53.612;7.278;2024-01-27T07:44:26;103105.88;;;4.62;100.00
5996;BME280;3026;53.612;7.278;2024-01-27T07:46:53;103110.34;;;4.63;100.00
5996;BME280;3026;53.612;7.278;2024-01-27T07:49:21;103117.44;;;4.66;100.00
5996;BME280;3026;53.612;7.278;2024-01-27T07:51:49;103123.63;;;4.68;100.00
5996;BME280;3026;53.612;7.278;2024-01-27T07:54:16;103128.94;;;4.69;100.00
5996;BME280;3026;53.612;7.278;2024-01-27T07:56:44;103128.06;;;4.69;100.00
5996;BME280;3026;53.612;7.278;2024-01-27T07:59:12;103136.19;;;4.69;100.00
5996;BME280;3026;53.612;7.278;2024-01-27T08:01:41;103137.84;;;4.72;100.00
5996;BME280;3026;53.612;7.278;2024-01-27T08:04:08;103130.53;;;4.74;100.00
5996;BME280;3026;53.612;7.278;2024-01-27T08:06:46;103130.53;;;4.74;100.00
5996;BME280;3026;53.612;7.278;2024-01-27T08:09:15;103134.06;;;4.76;100.00
5996;BME280;3026;53.612;7.278;2024-01-27T08:11:48;103135.78;;;4.77;100.00
5996;BME280;3026;53.612;7.278;2024-01-27T08:14:18;103121.31;;;4.78;100.00
5996;BME280;3026;53.612;7.278;2024-01-27T08:16:46;103131.09;;;4.80;100.00
5996;BME280;3026;53.612;7.278;2024-01-27T08:19:13;103133.72;;;4.82;100.00
5996;BME280;3026;53.612;7.278;2024-01-27T08:21:46;103131.81;;;4.84;100.00
5996;BME280;3026;53.612;7.278;2024-01-27T08:24:15;103135.28;;;4.86;100.00
5996;BME280;3026;53.612;7.278;2024-01-27T08:26:42;103145.19;;;4.87;100.00
5996;BME280;3026;53.612;7.278;2024-01-27T08:29:10;103144.22;;;4.88;100.00
5996;BME280;3026;53.612;7.278;2024-01-27T08:31:37;103137.94;;;4.87;100.00
5996;BME280;3026;53.612;7.278;2024-01-27T08:34:04;103136.03;;;4.89;100.00
5996;BME280;3026;53.612;7.278;2024-01-27T08:36:32;103142.31;;;4.90;100.00
5996;BME280;3026;53.612;7.278;2024-01-27T08:38:59;103151.22;;;4.92;100.00
5996;BME280;3026;53.612;7.278;2024-01-27T08:41:34;103154.69;;;4.94;100.00
5996;BME280;3026;53.612;7.278;2024-01-27T08:44:02;103152.78;;;4.96;100.00
5996;BME280;3026;53.612;7.278;2024-01-27T08:46:29;103152.66;;;4.99;100.00
5996;BME280;3026;53.612;7.278;2024-01-27T08:48:56;103168.72;;;5.02;100.00
5996;BME280;3026;53.612;7.278;2024-01-27T08:51:24;103168.47;;;5.07;100.00
5996;BME280;3026;53.612;7.278;2024-01-27T08:53:51;103182.72;;;5.10;100.00
5996;BME280;3026;53.612;7.278;2024-01-27T08:56:19;103175.41;;;5.12;100.00
5996;BME280;3026;53.612;7.278;2024-01-27T08:58:49;103176.97;;;5.16;100.00
5996;BME280;3026;53.612;7.278;2024-01-27T09:01:16;103181.25;;;5.20;100.00
5996;BME280;3026;53.612;7.278;2024-01-27T09:03:43;103173.00;;;5.23;100.00
5996;BME280;3026;53.612;7.278;2024-01-27T09:06:11;103175.63;;;5.25;100.00
5996;BME280;3026;53.612;7.278;2024-01-27T09:08:40;103165.50;;;5.28;100.00
5996;BME280;3026;53.612;7.278;2024-01-27T09:11:07;103169.88;;;5.31;100.00
5996;BME280;3026;53.612;7.278;2024-01-27T09:13:35;103155.31;;;5.34;100.00
5996;BME280;3026;53.612;7.278;2024-01-27T09:16:03;103165.88;;;5.38;100.00
5996;BME280;3026;53.612;7.278;2024-01-27T09:18:32;103164.66;;;5.44;100.00
5996;BME280;3026;53.612;7.278;2024-01-27T09:20:59;103157.19;;;5.49;100.00
5996;BME280;3026;53.612;7.278;2024-01-27T09:23:28;103161.31;;;5.56;100.00
5996;BME280;3026;53.612;7.278;2024-01-27T09:25:56;103156.34;;;5.64;100.00
5996;BME280;3026;53.612;7.278;2024-01-27T09:28:24;103154.28;;;5.69;100.00
5996;BME280;3026;53.612;7.278;2024-01-27T09:30:51;103156.63;;;5.75;100.00
5996;BME280;3026;53.612;7.278;2024-01-27T09:33:20;103174.91;;;5.88;100.00
5996;BME280;3026;53.612;7.278;2024-01-27T09:35:48;103170.75;;;5.98;100.00
5996;BME280;3026;53.612;7.278;2024-01-27T09:38:17;103166.56;;;6.08;100.00
5996;BME280;3026;53.612;7.278;2024-01-27T09:40:43;103191.03;;;6.22;100.00
5996;BME280;3026;53.612;7.278;2024-01-27T09:43:13;103185.28;;;6.28;100.00
5996;BME280;3026;53.612;7.278;2024-01-27T09:45:40;103177.94;;;6.30;100.00
5996;BME280;3026;53.612;7.278;2024-01-27T09:48:10;103189.63;;;6.47;100.00
5996;BME280;3026;53.612;7.278;2024-01-27T09:50:41;103196.88;;;6.62;100.00
5996;BME280;3026;53.612;7.278;2024-01-27T09:53:08;103190.31;;;6.66;100.00
5996;BME280;3026;53.612;7.278;2024-01-27T09:55:36;103201.69;;;6.72;100.00
5996;BME280;3026;53.612;7.278;2024-01-27T09:58:03;103206.72;;;6.79;100.00
5996;BME280;3026;53.612;7.278;2024-01-27T10:00:31;103205.28;;;6.73;100.00
5996;BME280;3026;53.612;7.278;2024-01-27T10:02:58;103195.00;;;6.78;100.00
5996;BME280;3026;53.612;7.278;2024-01-27T10:05:32;103190.59;;;6.91;100.00
5996;BME280;3026;53.612;7.278;2024-01-27T10:08:00;103191.59;;;7.05;100.00
5996;BME280;3026;53.612;7.278;2024-01-27T10:10:27;103198.97;;;7.02;100.00
5996;BME280;3026;53.612;7.278;2024-01-27T10:12:58;103203.75;;;7.13;100.00
5996;BME280;3026;53.612;7.278;2024-01-27T10:15:27;103201.34;;;7.23;100.00
5996;BME280;3026;53.612;7.278;2024-01-27T10:18:04;103195.53;;;7.29;100.00
5996;BME280;3026;53.612;7.278;2024-01-27T10:20:33;103186.47;;;7.44;100.00
5996;BME280;3026;53.612;7.278;2024-01-27T10:23:11;103183.19;;;7.53;100.00
5996;BME280;3026;53.612;7.278;2024-01-27T10:25:39;103198.72;;;7.66;100.00
5996;BME280;3026;53.612;7.278;2024-01-27T10:28:06;103222.84;;;7.70;100.00
5996;BME280;3026;53.612;7.278;2024-01-27T10:30:33;103224.59;;;7.71;100.00
5996;BME280;3026;53.612;7.278;2024-01-27T10:33:01;103224.59;;;7.71;100.00
5996;BME280;3026;53.612;7.278;2024-01-27T10:35:28;103225.88;;;7.80;100.00
5996;BME280;3026;53.612;7.278;2024-01-27T10:38:02;103227.41;;;7.98;100.00
5996;BME280;3026;53.612;7.278;2024-01-27T10:40:31;103227.78;;;8.06;100.00
5996;BME280;3026;53.612;7.278;2024-01-27T10:43:01;103243.13;;;8.07;100.00
5996;BME280;3026;53.612;7.278;2024-01-27T10:45:34;103248.41;;;8.10;100.00
5996;BME280;3026;53.612;7.278;2024-01-27T10:48:04;103244.41;;;8.16;100.00
5996;BME280;3026;53.612;7.278;2024-01-27T10:50:34;103254.09;;;8.20;100.00
5996;BME280;3026;53.612;7.278;2024-01-27T10:53:03;103243.13;;;8.07;100.00
5996;BME280;3026;53.612;7.278;2024-01-27T10:55:36;103251.47;;;8.04;100.00
5996;BME280;3026;53.612;7.278;2024-01-27T10:58:04;103247.31;;;8.13;100.00
5996;BME280;3026;53.612;7.278;2024-01-27T11:00:31;103243.63;;;8.14;100.00
5996;BME280;3026;53.612;7.278;2024-01-27T11:03:01;103249.53;;;8.20;100.00
5996;BME280;3026;53.612;7.278;2024-01-27T11:05:31;103236.44;;;8.13;100.00
5996;BME280;3026;53.612;7.278;2024-01-27T11:08:06;103250.88;;;8.28;100.00
5996;BME280;3026;53.612;7.278;2024-01-27T11:10:36;103252.63;;;8.29;100.00
5996;BME280;3026;53.612;7.278;2024-01-27T11:13:04;103258.59;;;8.35;100.00
5996;BME280;3026;53.612;7.278;2024-01-27T11:15:32;103254.19;;;8.47;100.00
5996;BME280;3026;53.612;7.278;2024-01-27T11:18:01;103248.72;;;8.61;100.00
5996;BME280;3026;53.612;7.278;2024-01-27T11:20:32;103253.72;;;8.67;100.00
5996;BME280;3026;53.612;7.278;2024-01-27T11:23:08;103261.28;;;8.76;100.00
5996;BME280;3026;53.612;7.278;2024-01-27T11:25:38;103254.69;;;8.81;100.00
5996;BME280;3026;53.612;7.278;2024-01-27T11:28:11;103259.34;;;8.78;100.00
5996;BME280;3026;53.612;7.278;2024-01-27T11:30:40;103251.34;;;8.90;100.00
5996;BME280;3026;53.612;7.278;2024-01-27T11:33:17;103259.09;;;8.96;100.00
5996;BME280;3026;53.612;7.278;2024-01-27T11:35:44;103256.78;;;8.90;100.00
5996;BME280;3026;53.612;7.278;2024-01-27T11:38:11;103272.28;;;9.02;100.00
5996;BME280;3026;53.612;7.278;2024-01-27T11:40:47;103270.38;;;8.90;100.00
5996;BME280;3026;53.612;7.278;2024-01-27T11:43:15;103266.88;;;8.88;100.00
5996;BME280;3026;53.612;7.278;2024-01-27T11:45:42;103270.19;;;8.93;100.00
5996;BME280;3026;53.612;7.278;2024-01-27T11:48:11;103268.50;;;9.04;100.00
5996;BME280;3026;53.612;7.278;2024-01-27T11:50:38;103270.28;;;9.18;100.00
5996;BME280;3026;53.612;7.278;2024-01-27T11:53:07;103270.06;;;9.21;100.00
5996;BME280;3026;53.612;7.278;2024-01-27T11:55:35;103277.16;;;9.36;100.00
5996;BME280;3026;53.612;7.278;2024-01-27T11:58:05;103265.72;;;9.31;100.00
5996;BME280;3026;53.612;7.278;2024-01-27T12:00:32;103264.41;;;9.24;100.00
5996;BME280;3026;53.612;7.278;2024-01-27T12:02:59;103258.53;;;9.30;100.00
5996;BME280;3026;53.612;7.278;2024-01-27T12:05:27;103256.50;;;9.47;100.00
5996;BME280;3026;53.612;7.278;2024-01-27T12:07:56;103263.41;;;9.65;100.00
5996;BME280;3026;53.612;7.278;2024-01-27T12:10:24;103255.34;;;9.76;100.00
5996;BME280;3026;53.612;7.278;2024-01-27T12:12:51;103263.06;;;9.82;100.00
5996;BME280;3026;53.612;7.278;2024-01-27T12:15:20;103271.78;;;9.87;100.00
5996;BME280;3026;53.612;7.278;2024-01-27T12:17:52;103265.59;;;9.85;100.00
5996;BME280;3026;53.612;7.278;2024-01-27T12:20:22;103274.94;;;9.81;100.00
5996;BME280;3026;53.612;7.278;2024-01-27T12:22:50;103267.09;;;9.89;100.00
5996;BME280;3026;53.612;7.278;2024-01-27T12:25:21;103257.69;;;10.06;100.00
5996;BME280;3026;53.612;7.278;2024-01-27T12:27:48;103275.63;;;10.23;100.00
5996;BME280;3026;53.612;7.278;2024-01-27T12:30:16;103276.91;;;10.30;100.00
5996;BME280;3026;53.612;7.278;2024-01-27T12:32:44;103277.38;;;10.24;100.00
5996;BME280;3026;53.612;7.278;2024-01-27T12:35:13;103265.34;;;10.14;100.00
5996;BME280;3026;53.612;7.278;2024-01-27T12:37:40;103269.28;;;10.10;100.00
5996;BME280;3026;53.612;7.278;2024-01-27T12:40:17;103271.25;;;10.08;100.00
5996;BME280;3026;53.612;7.278;2024-01-27T12:42:44;103269.38;;;10.21;100.00
5996;BME280;3026;53.612;7.278;2024-01-27T12:45:13;103274.94;;;10.19;100.00
5996;BME280;3026;53.612;7.278;2024-01-27T12:47:40;103273.53;;;10.14;100.00
5996;BME280;3026;53.612;7.278;2024-01-27T12:50:11;103268.44;;;10.22;100.00
5996;BME280;3026;53.612;7.278;2024-01-27T12:52:39;103273.97;;;10.33;100.00
5996;BME280;3026;53.612;7.278;2024-01-27T12:55:07;103273.81;;;10.47;100.00
5996;BME280;3026;53.612;7.278;2024-01-27T12:57:34;103267.75;;;10.31;100.00
5996;BME280;3026;53.612;7.278;2024-01-27T13:00:02;103274.06;;;10.19;100.00
5996;BME280;3026;53.612;7.278;2024-01-27T13:02:35;103271.69;;;10.02;100.00
5996;BME280;3026;53.612;7.278;2024-01-27T13:05:02;103275.50;;;9.86;100.00
5996;BME280;3026;53.612;7.278;2024-01-27T13:07:31;103283.88;;;9.71;100.00
5996;BME280;3026;53.612;7.278;2024-01-27T13:09:59;103272.41;;;9.53;100.00
5996;BME280;3026;53.612;7.278;2024-01-27T13:12:27;103269.56;;;9.42;100.00
5996;BME280;3026;53.612;7.278;2024-01-27T13:14:54;103266.50;;;9.33;100.00
5996;BME280;3026;53.612;7.278;2024-01-27T13:17:21;103266.13;;;9.25;100.00